createdAt,value
2022-12-18T00:00:14.178Z,96.55
2022-12-18T00:02:16.988Z,92.22
2022-12-18T00:04:23.055Z,92.60
2022-12-18T00:06:27.148Z,98.90
2022-12-18T00:08:31.110Z,81.78
2022-12-18T00:10:33.699Z,85.97
2022-12-18T00:12:36.333Z,74.78
2022-12-18T00:14:38.956Z,78.15
2022-12-18T00:16:46.201Z,74.95
2022-12-18T00:18:49.313Z,75.15
2022-12-18T00:20:51.935Z,92.55
2022-12-18T00:22:54.633Z,73.65
2022-12-18T00:24:58.575Z,84.60
2022-12-18T00:27:01.243Z,76.20
2022-12-18T00:29:06.589Z,82.13
2022-12-18T00:31:11.223Z,78.07
2022-12-18T00:33:13.914Z,79.28
2022-12-18T00:35:16.578Z,78.68
2022-12-18T00:37:20.466Z,74.88
2022-12-18T00:39:23.265Z,75.63
2022-12-18T00:41:45.729Z,78.60
2022-12-18T00:43:48.368Z,80.20
2022-12-18T00:45:51.030Z,79.32
2022-12-18T00:47:53.744Z,72.68
2022-12-18T00:49:56.356Z,72.50
2022-12-18T00:51:58.968Z,77.57
2022-12-18T00:54:01.925Z,78.93
2022-12-18T00:56:04.777Z,71.82
2022-12-18T00:58:08.854Z,79.82
2022-12-18T01:00:14.824Z,75.82
2022-12-18T01:02:17.503Z,64.90
2022-12-18T01:04:20.453Z,82.80
2022-12-18T01:06:23.101Z,83.53
2022-12-18T01:08:25.703Z,79.35
2022-12-18T01:10:28.480Z,74.40
2022-12-18T01:12:31.070Z,78.13
2022-12-18T01:14:35.083Z,80.80
2022-12-18T01:16:37.787Z,75.22
2022-12-18T01:18:40.941Z,80.85
2022-12-18T01:20:43.606Z,73.60
2022-12-18T01:22:46.256Z,75.65
2022-12-18T01:24:48.888Z,69.65
2022-12-18T01:26:51.523Z,74.65
2022-12-18T01:28:56.137Z,66.40
2022-12-18T01:31:10.624Z,68.80
2022-12-18T01:33:13.210Z,67.40
2022-12-18T01:35:15.918Z,67.43
2022-12-18T01:37:18.551Z,67.35
2022-12-18T01:39:21.429Z,67.70
2022-12-18T01:41:26.587Z,70.13
2022-12-18T01:43:46.888Z,60.08
2022-12-18T01:45:49.609Z,67.05
2022-12-18T01:47:55.327Z,67.15
2022-12-18T01:50:00.616Z,68.53
2022-12-18T01:52:03.320Z,70.75
2022-12-18T01:54:06.033Z,63.72
2022-12-18T01:56:09.228Z,64.97
2022-12-18T01:58:12.154Z,63.25
2022-12-18T02:00:18.054Z,65.35
2022-12-18T02:02:22.013Z,58.90
2022-12-18T02:04:27.789Z,62.60
2022-12-18T02:06:36.516Z,65.15
2022-12-18T02:08:49.915Z,62.88
2022-12-18T02:11:06.986Z,62.42
2022-12-18T02:13:16.337Z,68.85
2022-12-18T02:15:26.292Z,72.13
2022-12-18T02:17:36.911Z,62.55
2022-12-18T02:19:49.696Z,72.03
2022-12-18T02:22:00.124Z,69.85
2022-12-18T02:24:17.887Z,68.57
2022-12-18T02:26:28.284Z,67.00
2022-12-18T02:28:38.040Z,64.55
2022-12-18T02:30:43.218Z,69.38
2022-12-18T02:32:50.810Z,67.90
2022-12-18T02:34:56.498Z,61.08
2022-12-18T02:37:02.464Z,65.47
2022-12-18T02:39:08.290Z,73.05
2022-12-18T02:41:12.928Z,64.45
2022-12-18T02:43:17.893Z,71.45
2022-12-18T02:45:20.711Z,72.85
2022-12-18T02:47:26.093Z,72.68
2022-12-18T02:49:37.723Z,69.30
2022-12-18T02:53:55.433Z,63.67
2022-12-18T02:56:08.561Z,65.68
2022-12-18T02:58:17.710Z,69.88
2022-12-18T03:00:25.142Z,61.72
2022-12-18T03:02:35.049Z,61.28
2022-12-18T03:04:45.716Z,71.57
2022-12-18T03:06:52.302Z,66.25
2022-12-18T03:09:00.476Z,62.03
2022-12-18T03:11:05.991Z,69.18
2022-12-18T03:13:14.005Z,65.65
2022-12-18T03:15:20.687Z,67.63
2022-12-18T03:17:27.117Z,73.22
2022-12-18T03:19:33.429Z,80.07
2022-12-18T03:21:41.039Z,76.35
2022-12-18T03:23:49.448Z,81.75
2022-12-18T03:25:56.330Z,90.82
2022-12-18T03:28:03.385Z,78.47
2022-12-18T03:30:09.191Z,86.50
2022-12-18T03:32:14.264Z,81.30
2022-12-18T03:34:24.663Z,78.07
2022-12-18T03:36:27.708Z,75.30
2022-12-18T03:38:30.370Z,77.72
2022-12-18T03:40:42.615Z,76.07
2022-12-18T03:42:50.715Z,73.65
2022-12-18T03:44:59.830Z,77.07
2022-12-18T03:47:09.840Z,71.30
2022-12-18T03:49:16.657Z,74.03
2022-12-18T03:51:27.308Z,77.30
2022-12-18T03:53:37.586Z,75.73
2022-12-18T03:55:41.547Z,76.93
2022-12-18T03:57:46.270Z,67.57
2022-12-18T03:59:52.530Z,73.97
2022-12-18T04:01:57.504Z,74.28
2022-12-18T04:04:02.309Z,64.85
2022-12-18T04:06:06.542Z,71.80
2022-12-18T04:08:10.713Z,68.13
2022-12-18T04:10:14.416Z,79.32
2022-12-18T04:12:17.158Z,76.10
2022-12-18T04:14:19.766Z,71.40
2022-12-18T04:16:22.375Z,80.35
2022-12-18T04:18:25.033Z,74.13
2022-12-18T04:20:27.651Z,75.47
2022-12-18T04:22:30.300Z,72.78
2022-12-18T04:24:34.327Z,71.68
2022-12-18T04:26:36.983Z,72.53
2022-12-18T04:28:39.642Z,67.93
2022-12-18T04:30:42.261Z,70.70
2022-12-18T04:32:50.498Z,67.93
2022-12-18T04:34:54.761Z,66.97
2022-12-18T04:36:57.369Z,69.85
2022-12-18T04:39:00.262Z,63.00
2022-12-18T04:41:04.281Z,59.35
2022-12-18T04:43:07.427Z,59.28
2022-12-18T04:45:11.024Z,59.42
2022-12-18T04:47:13.606Z,63.97
2022-12-18T04:49:19.054Z,72.03
2022-12-18T04:51:26.427Z,67.90
2022-12-18T04:53:29.479Z,68.72
2022-12-18T04:55:32.158Z,73.30
2022-12-18T04:57:36.217Z,65.90
2022-12-18T04:59:38.816Z,71.60
2022-12-18T05:01:41.480Z,68.38
2022-12-18T05:03:45.399Z,66.32
2022-12-18T05:05:51.439Z,65.32
2022-12-18T05:07:54.496Z,57.53
2022-12-18T05:09:59.934Z,66.20
2022-12-18T05:12:02.526Z,72.22
2022-12-18T05:14:09.212Z,65.72
2022-12-18T05:16:12.313Z,63.47
2022-12-18T05:18:14.971Z,71.20
2022-12-18T05:20:19.112Z,72.65
2022-12-18T05:22:21.724Z,69.38
2022-12-18T05:24:24.398Z,71.07
2022-12-18T05:26:27.006Z,68.38
2022-12-18T05:28:32.037Z,66.50
2022-12-18T05:30:36.195Z,69.78
2022-12-18T05:32:39.363Z,59.85
2022-12-18T05:34:41.970Z,67.15
2022-12-18T05:36:44.756Z,63.92
2022-12-18T05:38:47.596Z,65.30
2022-12-18T05:40:50.627Z,66.55
2022-12-18T05:42:53.223Z,63.33
2022-12-18T05:44:55.814Z,67.05
2022-12-18T05:46:59.899Z,65.70
2022-12-18T05:49:02.781Z,66.47
2022-12-18T05:51:07.906Z,68.32
2022-12-18T05:53:11.600Z,66.35
2022-12-18T05:55:14.242Z,64.78
2022-12-18T05:57:17.211Z,62.40
2022-12-18T05:59:19.810Z,65.13
2022-12-18T06:01:24.861Z,67.88
2022-12-18T06:03:33.727Z,64.22
2022-12-18T06:05:38.163Z,59.33
2022-12-18T06:07:41.041Z,59.65
2022-12-18T06:09:43.737Z,63.90
2022-12-18T06:11:46.316Z,66.72
2022-12-18T06:13:57.640Z,61.72
2022-12-18T06:16:04.141Z,47.35
2022-12-18T06:18:06.950Z,62.33
2022-12-18T06:20:11.765Z,71.57
2022-12-18T06:22:14.319Z,64.72
2022-12-18T06:24:17.259Z,72.03
2022-12-18T06:26:24.634Z,75.88
2022-12-18T06:28:30.404Z,67.30
2022-12-18T06:30:32.983Z,86.60
2022-12-18T06:32:35.827Z,75.47
2022-12-18T06:34:39.798Z,73.18
2022-12-18T06:36:43.726Z,68.72
2022-12-18T06:38:46.470Z,65.55
2022-12-18T06:40:49.050Z,88.95
2022-12-18T06:42:51.638Z,82.82
2022-12-18T06:44:54.643Z,90.35
2022-12-18T06:46:57.382Z,96.72
2022-12-18T06:48:59.994Z,104.10
2022-12-18T06:51:03.407Z,72.95
2022-12-18T06:53:07.475Z,66.32
2022-12-18T06:55:10.455Z,72.78
2022-12-18T06:57:13.187Z,77.80
2022-12-18T06:59:16.641Z,66.30
2022-12-18T07:01:19.424Z,64.35
2022-12-18T07:03:22.070Z,62.03
2022-12-18T07:05:26.654Z,56.88
2022-12-18T07:07:29.275Z,59.92
2022-12-18T07:09:33.251Z,60.80
2022-12-18T07:11:36.006Z,64.43
2022-12-18T07:13:38.979Z,65.45
2022-12-18T07:15:41.875Z,72.00
2022-12-18T07:17:45.570Z,65.10
2022-12-18T07:19:48.206Z,65.10
2022-12-18T07:21:51.825Z,72.45
2022-12-18T07:23:54.891Z,67.40
2022-12-18T07:26:03.119Z,65.22
2022-12-18T07:28:07.039Z,70.03
2022-12-18T07:30:11.473Z,71.80
2022-12-18T07:32:14.111Z,73.32
2022-12-18T07:34:17.004Z,72.45
2022-12-18T07:36:20.171Z,60.05
2022-12-18T07:38:23.780Z,67.95
2022-12-18T07:40:26.399Z,67.07
2022-12-18T07:42:33.102Z,67.82
2022-12-18T07:44:35.735Z,63.58
2022-12-18T07:46:38.390Z,69.32
2022-12-18T07:48:41.093Z,65.72
2022-12-18T07:50:43.712Z,64.93
2022-12-18T07:52:46.297Z,66.47
2022-12-18T07:54:50.919Z,79.15
2022-12-18T07:56:53.976Z,66.63
2022-12-18T07:58:57.939Z,61.65
2022-12-18T08:01:05.340Z,63.17
2022-12-18T08:03:09.018Z,62.78
2022-12-18T08:05:11.810Z,62.28
2022-12-18T08:07:15.055Z,69.18
2022-12-18T08:09:17.752Z,59.42
2022-12-18T08:11:20.345Z,68.43
2022-12-18T08:13:24.173Z,68.30
2022-12-18T08:15:28.108Z,67.88
2022-12-18T08:17:30.726Z,63.85
2022-12-18T08:19:33.349Z,72.65
2022-12-18T08:21:35.972Z,66.18
2022-12-18T08:23:42.654Z,69.95
2022-12-18T08:25:46.005Z,70.32
2022-12-18T08:27:48.636Z,65.47
2022-12-18T08:29:51.273Z,68.47
2022-12-18T08:31:55.300Z,75.35
2022-12-18T08:33:58.583Z,69.13
2022-12-18T08:36:02.259Z,73.32
2022-12-18T08:38:05.043Z,66.97
2022-12-18T08:40:09.511Z,66.90
2022-12-18T08:42:29.865Z,68.25
2022-12-18T08:44:42.187Z,65.90
2022-12-18T08:46:45.886Z,63.17
2022-12-18T08:48:50.273Z,70.20
2022-12-18T08:50:57.115Z,70.95
2022-12-18T08:52:59.755Z,72.88
2022-12-18T08:55:02.485Z,65.05
2022-12-18T08:57:05.249Z,64.13
2022-12-18T08:59:07.846Z,62.50
2022-12-18T09:01:14.591Z,70.18
2022-12-18T09:03:18.946Z,68.80
2022-12-18T09:05:22.996Z,61.42
2022-12-18T09:07:25.637Z,75.05
2022-12-18T09:09:28.260Z,65.65
2022-12-18T09:11:31.558Z,69.15
2022-12-18T09:13:34.185Z,79.85
2022-12-18T09:15:41.748Z,74.18
2022-12-18T09:17:44.662Z,83.68
2022-12-18T09:19:47.349Z,82.57
2022-12-18T09:21:51.306Z,81.43
2022-12-18T09:23:54.764Z,76.35
2022-12-18T09:26:00.790Z,78.13
2022-12-18T09:28:03.902Z,75.82
2022-12-18T09:30:07.990Z,80.53
2022-12-18T09:32:10.590Z,77.95
2022-12-18T09:34:13.188Z,77.55
2022-12-18T09:36:18.571Z,86.93
2022-12-18T09:38:24.091Z,86.45
2022-12-18T09:40:31.034Z,80.90
2022-12-18T09:42:34.075Z,81.30
2022-12-18T09:44:45.003Z,77.78
2022-12-18T09:46:54.394Z,80.03
2022-12-18T09:49:01.640Z,85.57
2022-12-18T09:51:11.362Z,83.95
2022-12-18T09:53:19.443Z,78.45
2022-12-18T09:55:32.172Z,74.38
2022-12-18T09:57:44.702Z,82.22
2022-12-18T09:59:52.061Z,86.03
2022-12-18T10:01:55.068Z,90.63
2022-12-18T10:03:58.292Z,85.03
2022-12-18T10:06:09.214Z,80.30
2022-12-18T10:08:17.989Z,82.88
2022-12-18T10:10:29.523Z,81.88
2022-12-18T10:14:47.537Z,89.55
2022-12-18T10:17:01.509Z,83.57
2022-12-18T10:19:20.791Z,88.10
2022-12-18T10:21:32.253Z,84.43
2022-12-18T10:23:45.045Z,97.20
2022-12-18T10:25:58.081Z,99.13
2022-12-18T10:28:11.936Z,109.40
2022-12-18T10:30:16.887Z,97.53
2022-12-18T10:32:22.141Z,95.82
2022-12-18T10:34:25.842Z,103.35
2022-12-18T10:36:28.701Z,97.95
2022-12-18T10:38:32.912Z,97.80
2022-12-18T10:40:50.252Z,92.88
2022-12-18T10:43:06.818Z,94.75
2022-12-18T10:45:12.588Z,97.82
2022-12-18T10:47:20.131Z,99.50
2022-12-18T10:49:28.671Z,92.05
2022-12-18T10:51:34.487Z,96.47
2022-12-18T10:53:39.472Z,95.68
2022-12-18T10:55:47.963Z,105.10
2022-12-18T10:57:50.641Z,96.97
2022-12-18T10:59:56.691Z,86.82
2022-12-18T11:02:00.408Z,89.97
2022-12-18T11:04:10.563Z,102.45
2022-12-18T11:06:15.515Z,96.30
2022-12-18T11:08:23.781Z,101.38
2022-12-18T11:10:32.038Z,99.72
2022-12-18T11:12:34.678Z,102.50
2022-12-18T11:14:47.360Z,101.10
2022-12-18T11:19:28.186Z,105.28
2022-12-18T11:21:30.853Z,106.35
2022-12-18T11:23:33.672Z,106.50
2022-12-18T11:25:36.716Z,109.53
2022-12-18T11:27:40.555Z,111.88
2022-12-18T11:29:46.616Z,108.10
2022-12-18T11:31:51.000Z,115.45
2022-12-18T11:34:28.033Z,109.97
2022-12-18T11:36:30.660Z,103.97
2022-12-18T11:38:36.346Z,110.57
2022-12-18T11:40:42.152Z,106.75
2022-12-18T11:42:50.129Z,105.32
2022-12-18T11:44:57.153Z,102.57
2022-12-18T11:47:05.595Z,100.03
2022-12-18T11:49:15.484Z,108.05
2022-12-18T11:51:27.373Z,98.07
2022-12-18T11:53:31.864Z,109.53
2022-12-18T11:55:53.088Z,111.15
2022-12-18T11:58:01.896Z,99.97
2022-12-18T12:00:15.912Z,116.07
2022-12-18T12:02:43.603Z,102.82
2022-12-18T12:04:58.258Z,104.78
2022-12-18T12:07:13.748Z,114.10
2022-12-18T12:09:26.150Z,106.03
2022-12-18T12:11:37.118Z,103.43
2022-12-18T12:13:49.016Z,111.72
2022-12-18T12:16:02.192Z,109.18
2022-12-18T12:18:15.239Z,117.38
2022-12-18T12:20:22.680Z,121.07
2022-12-18T12:22:35.403Z,118.22
2022-12-18T12:24:48.099Z,120.60
2022-12-18T12:26:59.775Z,109.82
2022-12-18T12:31:22.139Z,120.13
2022-12-18T12:33:36.184Z,119.93
2022-12-18T12:35:49.461Z,119.88
2022-12-18T12:38:07.214Z,114.25
2022-12-18T12:40:49.182Z,109.93
2022-12-18T12:43:01.942Z,108.75
2022-12-18T12:45:08.786Z,112.13
2022-12-18T12:47:16.993Z,110.47
2022-12-18T12:49:25.603Z,111.07
2022-12-18T12:51:30.947Z,111.13
2022-12-18T12:53:38.870Z,114.00
2022-12-18T12:55:44.419Z,112.55
2022-12-18T12:57:58.092Z,116.00
2022-12-18T13:00:05.670Z,107.63
2022-12-18T13:02:16.988Z,108.78
2022-12-18T13:04:29.105Z,107.53
2022-12-18T13:06:44.685Z,103.18
2022-12-18T13:08:58.089Z,116.93
2022-12-18T13:11:15.616Z,108.63
2022-12-18T13:13:23.626Z,116.88
2022-12-18T13:15:32.677Z,109.07
2022-12-18T13:17:39.311Z,109.97
2022-12-18T13:19:43.883Z,106.60
2022-12-18T13:21:55.732Z,110.40
2022-12-18T13:24:16.131Z,108.85
2022-12-18T13:26:36.863Z,110.53
2022-12-18T13:28:54.819Z,99.35
2022-12-18T13:30:59.278Z,121.80
2022-12-18T13:33:51.051Z,111.18
2022-12-18T13:36:15.429Z,108.30
2022-12-18T13:38:23.843Z,102.90
2022-12-18T13:41:00.167Z,105.75
2022-12-18T13:43:14.737Z,102.32
2022-12-18T13:45:43.624Z,112.72
2022-12-18T13:47:47.657Z,105.60
2022-12-18T13:49:50.312Z,103.63
2022-12-18T13:51:56.721Z,105.95
2022-12-18T13:54:01.963Z,97.93
2022-12-18T13:56:05.603Z,100.47
2022-12-18T13:58:08.530Z,99.82
2022-12-18T14:00:27.093Z,99.60
2022-12-18T14:02:30.621Z,100.05
2022-12-18T14:04:35.141Z,93.45
2022-12-18T14:06:38.482Z,102.25
2022-12-18T14:08:45.296Z,98.80
2022-12-18T14:10:50.426Z,105.57
2022-12-18T14:13:00.345Z,99.70
2022-12-18T14:15:12.169Z,101.55
2022-12-18T14:17:16.501Z,106.57
2022-12-18T14:19:20.559Z,108.88
2022-12-18T14:21:27.016Z,125.57
2022-12-18T14:23:35.718Z,110.10
2022-12-18T14:25:39.642Z,119.95
2022-12-18T14:27:45.256Z,124.03
2022-12-18T14:29:48.060Z,113.60
2022-12-18T14:32:06.955Z,95.63
2022-12-18T14:34:17.321Z,106.82
2022-12-18T14:36:22.422Z,102.35
2022-12-18T14:38:29.013Z,101.90
2022-12-18T14:40:31.636Z,108.03
2022-12-18T14:42:36.037Z,107.60
2022-12-18T14:44:50.683Z,112.05
2022-12-18T14:47:00.340Z,106.00
2022-12-18T14:49:05.381Z,111.90
2022-12-18T14:51:17.174Z,107.13
2022-12-18T14:53:25.531Z,114.85
2022-12-18T14:55:28.416Z,112.03
2022-12-18T14:57:38.764Z,106.63
2022-12-18T14:59:41.465Z,110.18
2022-12-18T15:01:49.891Z,114.25
2022-12-18T15:03:53.334Z,108.80
2022-12-18T15:05:56.419Z,115.70
2022-12-18T15:08:01.599Z,110.45
2022-12-18T15:10:12.158Z,112.10
2022-12-18T15:12:36.849Z,108.22
2022-12-18T15:14:42.595Z,110.00
2022-12-18T15:16:46.310Z,104.78
2022-12-18T15:18:49.732Z,110.45
2022-12-18T15:20:55.803Z,104.53
2022-12-18T15:22:58.430Z,112.05
2022-12-18T15:25:01.769Z,103.35
2022-12-18T15:27:04.802Z,104.22
2022-12-18T15:29:22.040Z,99.68
2022-12-18T15:31:32.489Z,98.63
2022-12-18T15:33:39.611Z,101.85
2022-12-18T15:35:46.971Z,104.97
2022-12-18T15:37:50.676Z,102.72
2022-12-18T15:39:53.292Z,106.80
2022-12-18T15:42:13.605Z,104.85
2022-12-18T15:44:26.479Z,104.63
2022-12-18T15:46:29.359Z,111.28
2022-12-18T15:48:33.886Z,113.40
2022-12-18T15:50:36.673Z,104.85
2022-12-18T15:52:43.177Z,109.55
2022-12-18T15:55:03.256Z,102.38
2022-12-18T15:57:23.263Z,101.30
2022-12-18T15:59:27.613Z,104.45
2022-12-18T16:01:32.552Z,103.90
2022-12-18T16:03:35.284Z,108.43
2022-12-18T16:05:38.158Z,108.63
2022-12-18T16:07:40.838Z,97.88
2022-12-18T16:09:43.820Z,105.93
2022-12-18T16:11:48.778Z,105.18
2022-12-18T16:13:51.360Z,104.20
2022-12-18T16:15:55.698Z,110.38
2022-12-18T16:17:58.314Z,102.63
2022-12-18T16:20:01.098Z,101.55
2022-12-18T16:22:03.827Z,104.03
2022-12-18T16:24:06.957Z,96.45
2022-12-18T16:26:09.583Z,93.80
2022-12-18T16:28:12.226Z,87.53
2022-12-18T16:30:16.412Z,84.68
2022-12-18T16:32:23.413Z,82.60
2022-12-18T16:34:29.262Z,80.75
2022-12-18T16:36:32.277Z,77.97
2022-12-18T16:38:34.846Z,72.07
2022-12-18T16:40:57.586Z,69.25
2022-12-18T16:43:00.280Z,70.55
2022-12-18T16:45:02.916Z,68.40
2022-12-18T16:47:05.797Z,68.63
2022-12-18T16:49:12.226Z,69.05
2022-12-18T16:51:14.892Z,72.82
2022-12-18T16:53:17.507Z,74.43
2022-12-18T16:55:20.344Z,72.85
2022-12-18T16:57:25.217Z,76.43
2022-12-18T16:59:29.197Z,71.60
2022-12-18T17:01:33.762Z,73.10
2022-12-18T17:03:36.540Z,69.43
2022-12-18T17:05:40.665Z,75.45
2022-12-18T17:07:43.271Z,70.30
2022-12-18T17:09:45.972Z,79.70
2022-12-18T17:11:48.623Z,73.22
2022-12-18T17:13:51.284Z,70.45
2022-12-18T17:15:54.189Z,70.82
2022-12-18T17:17:57.445Z,79.28
2022-12-18T17:20:00.033Z,71.47
2022-12-18T17:22:04.808Z,76.45
2022-12-18T17:24:07.796Z,75.25
2022-12-18T17:26:11.239Z,82.15
2022-12-18T17:28:13.907Z,84.82
2022-12-18T17:30:16.606Z,108.05
2022-12-18T17:32:19.306Z,112.53
2022-12-18T17:34:22.039Z,138.07
2022-12-18T17:36:25.119Z,117.18
2022-12-18T17:38:29.047Z,141.93
2022-12-18T17:40:33.694Z,138.45
2022-12-18T17:42:36.303Z,140.25
2022-12-18T17:44:39.255Z,132.48
2022-12-18T17:46:42.148Z,141.32
2022-12-18T17:48:44.831Z,144.23
2022-12-18T17:50:47.445Z,156.18
2022-12-18T17:52:50.016Z,157.45
2022-12-18T17:54:53.977Z,150.98
2022-12-18T17:56:56.713Z,144.45
2022-12-18T17:58:59.466Z,156.57
2022-12-18T18:01:02.262Z,144.63
2022-12-18T18:03:05.259Z,140.90
2022-12-18T18:05:08.377Z,138.02
2022-12-18T18:07:13.730Z,141.07
2022-12-18T18:09:17.249Z,127.07
2022-12-18T18:11:41.030Z,133.63
2022-12-18T18:14:01.890Z,117.82
2022-12-18T18:16:04.554Z,112.05
2022-12-18T18:18:07.147Z,114.68
2022-12-18T18:20:10.941Z,129.32
2022-12-18T18:22:13.633Z,118.20
2022-12-18T18:24:19.304Z,141.32
2022-12-18T18:26:23.268Z,129.35
2022-12-18T18:28:29.250Z,125.50
2022-12-18T18:30:31.866Z,129.70
2022-12-18T18:32:38.079Z,120.40
2022-12-18T18:34:40.872Z,122.60
2022-12-18T18:36:45.444Z,112.75
2022-12-18T18:38:48.683Z,109.03
2022-12-18T18:40:59.451Z,117.85
2022-12-18T18:43:03.448Z,115.32
2022-12-18T18:45:08.754Z,115.00
2022-12-18T18:47:11.363Z,114.20
2022-12-18T18:49:14.694Z,109.85
2022-12-18T18:51:21.123Z,114.13
2022-12-18T18:53:24.403Z,105.25
2022-12-18T18:55:27.043Z,111.50
2022-12-18T18:57:30.699Z,105.22
2022-12-18T18:59:34.805Z,119.18
2022-12-18T19:01:37.560Z,116.68
2022-12-18T19:03:40.834Z,115.13
2022-12-18T19:05:47.528Z,113.05
2022-12-18T19:07:50.312Z,106.63
2022-12-18T19:09:54.113Z,111.85
2022-12-18T19:12:14.504Z,112.07
2022-12-18T19:14:17.509Z,113.72
2022-12-18T19:16:21.544Z,120.25
2022-12-18T19:18:27.070Z,125.00
2022-12-18T19:20:29.746Z,116.53
2022-12-18T19:22:32.373Z,117.53
2022-12-18T19:24:34.993Z,108.95
2022-12-18T19:26:37.613Z,113.80
2022-12-18T19:28:40.834Z,113.10
2022-12-18T19:30:44.190Z,105.28
2022-12-18T19:32:48.112Z,109.47
2022-12-18T19:34:50.727Z,104.82
2022-12-18T19:36:59.446Z,110.70
2022-12-18T19:39:08.025Z,106.70
2022-12-18T19:41:10.674Z,110.75
2022-12-18T19:43:14.509Z,103.53
2022-12-18T19:45:17.413Z,106.15
2022-12-18T19:47:20.018Z,102.75
2022-12-18T19:49:23.915Z,107.18
2022-12-18T19:51:29.228Z,100.82
2022-12-18T19:53:32.004Z,96.85
2022-12-18T19:55:34.622Z,97.47
2022-12-18T19:57:37.208Z,95.03
2022-12-18T19:59:39.799Z,102.85
2022-12-18T20:01:43.368Z,99.57
2022-12-18T20:03:48.012Z,100.38
2022-12-18T20:05:56.674Z,99.10
2022-12-18T20:07:59.270Z,99.00
2022-12-18T20:10:08.675Z,109.57
2022-12-18T20:12:11.711Z,107.57
2022-12-18T20:14:20.635Z,107.65
2022-12-18T20:16:26.273Z,117.25
2022-12-18T20:18:29.528Z,107.22
2022-12-18T20:20:32.126Z,105.18
2022-12-18T20:22:36.462Z,110.57
2022-12-18T20:24:39.077Z,120.85
2022-12-18T20:26:41.751Z,118.50
2022-12-18T20:28:44.509Z,120.75
2022-12-18T20:30:47.353Z,109.32
2022-12-18T20:32:49.931Z,127.40
2022-12-18T20:34:52.477Z,126.50
2022-12-18T20:36:55.826Z,128.90
2022-12-18T20:39:01.624Z,128.85
2022-12-18T20:41:09.762Z,125.20
2022-12-18T20:43:16.969Z,130.35
2022-12-18T20:45:20.197Z,123.43
2022-12-18T20:47:22.827Z,129.85
2022-12-18T20:49:26.596Z,139.00
2022-12-18T20:51:30.555Z,140.52
2022-12-18T20:53:33.658Z,134.63
2022-12-18T20:55:42.396Z,113.55
2022-12-18T20:57:45.048Z,132.55
2022-12-18T20:59:48.470Z,130.20
2022-12-18T21:01:52.091Z,123.75
2022-12-18T21:03:55.053Z,130.18
2022-12-18T21:05:57.644Z,135.40
2022-12-18T21:08:00.302Z,129.40
2022-12-18T21:10:07.377Z,125.95
2022-12-18T21:12:40.664Z,129.18
2022-12-18T21:14:47.972Z,128.65
2022-12-18T21:16:53.252Z,129.80
2022-12-18T21:18:55.973Z,123.75
2022-12-18T21:20:59.134Z,130.50
2022-12-18T21:23:15.576Z,120.53
2022-12-18T21:25:19.364Z,113.53
2022-12-18T21:27:23.367Z,128.02
2022-12-18T21:29:27.218Z,116.63
2022-12-18T21:31:31.652Z,120.88
2022-12-18T21:33:34.354Z,116.97
2022-12-18T21:35:37.154Z,119.90
2022-12-18T21:37:39.852Z,122.68
2022-12-18T21:39:42.553Z,127.70
2022-12-18T21:42:03.414Z,122.15
2022-12-18T21:44:07.581Z,120.63
2022-12-18T21:46:12.505Z,112.15
2022-12-18T21:48:15.160Z,113.45
2022-12-18T21:50:18.024Z,113.22
2022-12-18T21:52:22.184Z,117.72
2022-12-18T21:54:35.497Z,113.63
2022-12-18T21:56:48.741Z,117.18
2022-12-18T21:58:56.824Z,105.82
2022-12-18T22:01:01.389Z,113.70
2022-12-18T22:03:18.602Z,108.28
2022-12-18T22:05:21.763Z,107.53
2022-12-18T22:07:24.406Z,109.90
2022-12-18T22:09:27.274Z,101.55
2022-12-18T22:11:29.920Z,110.15
2022-12-18T22:13:32.505Z,108.13
2022-12-18T22:15:35.245Z,104.15
2022-12-18T22:17:39.336Z,108.20
2022-12-18T22:19:43.111Z,101.95
2022-12-18T22:21:49.640Z,98.93
2022-12-18T22:23:56.997Z,105.53
2022-12-18T22:25:59.809Z,104.47
2022-12-18T22:28:19.871Z,97.18
2022-12-18T22:30:22.537Z,105.57
2022-12-18T22:32:31.377Z,107.90
2022-12-18T22:34:36.906Z,98.65
2022-12-18T22:36:41.777Z,105.78
2022-12-18T22:38:44.587Z,104.15
2022-12-18T22:40:47.192Z,107.65
2022-12-18T22:42:49.901Z,103.43
2022-12-18T22:44:53.992Z,97.07
2022-12-18T22:47:03.540Z,107.97
2022-12-18T22:49:13.466Z,101.90
2022-12-18T22:51:21.815Z,97.68
2022-12-18T22:53:24.529Z,103.43
2022-12-18T22:55:27.141Z,108.88
2022-12-18T22:57:29.718Z,108.10
2022-12-18T22:59:32.288Z,97.22
2022-12-18T23:01:35.025Z,114.20
2022-12-18T23:03:39.216Z,102.35
2022-12-18T23:05:41.948Z,111.03
2022-12-18T23:07:45.927Z,105.18
2022-12-18T23:09:49.373Z,92.80
2022-12-18T23:11:53.340Z,94.57
2022-12-18T23:13:56.744Z,94.00
2022-12-18T23:16:01.521Z,88.57
2022-12-18T23:18:04.164Z,101.70
2022-12-18T23:20:07.890Z,100.10
2022-12-18T23:22:11.938Z,100.78
2022-12-18T23:24:16.445Z,98.40
2022-12-18T23:26:21.102Z,94.03
2022-12-18T23:28:23.757Z,100.85
2022-12-18T23:30:27.887Z,98.93
2022-12-18T23:32:30.510Z,99.03
2022-12-18T23:34:35.706Z,103.53
2022-12-18T23:36:45.715Z,101.20
2022-12-18T23:38:51.086Z,96.10
2022-12-18T23:40:56.504Z,97.97
2022-12-18T23:43:00.546Z,93.28
2022-12-18T23:45:03.904Z,94.60
2022-12-18T23:47:19.223Z,99.50
2022-12-18T23:49:21.807Z,99.95
2022-12-18T23:51:25.687Z,102.03
2022-12-18T23:53:28.370Z,96.22
2022-12-18T23:55:31.056Z,101.00
2022-12-18T23:57:34.978Z,102.68
2022-12-18T23:59:37.590Z,91.32
